createdAt,value
2023-05-17T00:02:13.393Z,8.00
2023-05-17T00:04:45.313Z,8.30
2023-05-17T00:07:16.227Z,7.20
2023-05-17T00:09:46.643Z,7.90
2023-05-17T00:12:17.022Z,8.80
2023-05-17T00:14:47.475Z,9.40
2023-05-17T00:17:17.788Z,10.90
2023-05-17T00:19:48.265Z,10.40
2023-05-17T00:22:18.735Z,12.00
2023-05-17T00:24:49.181Z,13.90
2023-05-17T00:27:19.592Z,10.60
2023-05-17T00:29:50.343Z,11.00
2023-05-17T00:32:21.074Z,10.30
2023-05-17T00:34:51.474Z,11.30
2023-05-17T00:37:21.905Z,11.10
2023-05-17T00:39:53.170Z,10.80
2023-05-17T00:42:23.555Z,12.60
2023-05-17T00:44:53.941Z,13.20
2023-05-17T00:47:24.499Z,13.20
2023-05-17T00:49:55.209Z,12.60
2023-05-17T00:52:25.696Z,13.00
2023-05-17T00:54:56.132Z,11.00
2023-05-17T00:57:26.977Z,12.00
2023-05-17T00:59:57.757Z,10.50
2023-05-17T01:02:28.385Z,9.70
2023-05-17T01:05:00.102Z,11.10
2023-05-17T01:07:32.391Z,9.70
2023-05-17T01:10:03.792Z,9.10
2023-05-17T01:12:59.805Z,8.90
2023-05-17T01:15:34.127Z,9.10
2023-05-17T01:18:13.465Z,9.10
2023-05-17T01:20:46.446Z,8.40
2023-05-17T01:23:37.065Z,9.00
2023-05-17T01:26:12.634Z,8.30
2023-05-17T01:28:44.981Z,8.20
2023-05-17T01:31:15.900Z,9.40
2023-05-17T01:33:46.710Z,8.40
2023-05-17T01:36:17.181Z,9.30
2023-05-17T01:38:47.596Z,7.20
2023-05-17T01:41:24.483Z,8.60
2023-05-17T01:44:01.275Z,7.80
2023-05-17T01:46:38.975Z,9.10
2023-05-17T01:49:19.529Z,8.50
2023-05-17T01:51:58.876Z,8.60
2023-05-17T01:54:38.442Z,9.10
2023-05-17T01:57:12.941Z,8.30
2023-05-17T01:59:45.403Z,8.40
2023-05-17T02:02:18.810Z,6.50
2023-05-17T02:04:51.608Z,7.70
2023-05-17T02:07:22.082Z,7.50
2023-05-17T02:09:52.531Z,7.60
2023-05-17T02:12:25.324Z,8.50
2023-05-17T02:14:55.791Z,7.50
2023-05-17T02:17:26.361Z,8.50
2023-05-17T02:19:57.108Z,8.60
2023-05-17T02:22:27.965Z,9.10
2023-05-17T02:25:01.383Z,7.70
2023-05-17T02:27:31.863Z,9.00
2023-05-17T02:30:04.715Z,7.60
2023-05-17T02:32:35.209Z,7.00
2023-05-17T02:35:06.710Z,7.10
2023-05-17T02:37:37.001Z,6.20
2023-05-17T02:40:11.331Z,6.80
2023-05-17T02:42:41.789Z,6.50
2023-05-17T02:45:13.259Z,6.10
2023-05-17T02:47:43.704Z,6.50
2023-05-17T02:50:14.306Z,5.40
2023-05-17T02:52:44.748Z,5.40
2023-05-17T02:55:15.158Z,5.40
2023-05-17T02:57:46.180Z,5.50
2023-05-17T03:00:18.832Z,4.80
2023-05-17T03:02:49.580Z,4.90
2023-05-17T03:05:20.044Z,4.90
2023-05-17T03:07:53.843Z,4.50
2023-05-17T03:10:24.473Z,4.50
2023-05-17T03:12:55.022Z,4.90
2023-05-17T03:15:29.859Z,4.10
2023-05-17T03:18:00.910Z,4.40
2023-05-17T03:20:32.344Z,4.10
2023-05-17T03:23:02.937Z,4.50
2023-05-17T03:25:33.832Z,3.70
2023-05-17T03:28:06.038Z,4.30
2023-05-17T03:30:36.573Z,3.60
2023-05-17T03:33:07.242Z,4.10
2023-05-17T03:35:38.192Z,4.40
2023-05-17T03:38:08.590Z,3.80
2023-05-17T03:40:39.587Z,3.70
2023-05-17T03:43:10.216Z,3.00
2023-05-17T03:45:41.304Z,4.10
2023-05-17T03:48:11.778Z,3.80
2023-05-17T03:50:43.158Z,3.20
2023-05-17T03:53:13.914Z,3.30
2023-05-17T03:55:44.327Z,3.80
2023-05-17T03:58:15.644Z,3.60
2023-05-17T04:00:46.715Z,2.70
2023-05-17T04:03:19.982Z,3.50
2023-05-17T04:05:50.984Z,3.10
2023-05-17T04:08:21.638Z,2.70
2023-05-17T04:10:51.998Z,2.40
2023-05-17T04:13:22.377Z,2.80
2023-05-17T04:15:52.799Z,2.60
2023-05-17T04:18:23.251Z,2.70
2023-05-17T04:20:55.797Z,2.30
2023-05-17T04:23:26.829Z,2.40
2023-05-17T04:25:58.005Z,2.60
2023-05-17T04:28:28.762Z,2.50
2023-05-17T04:30:59.620Z,2.20
2023-05-17T04:33:31.275Z,2.40
2023-05-17T04:36:02.674Z,2.60
2023-05-17T04:38:34.153Z,2.20
2023-05-17T04:41:09.558Z,2.60
2023-05-17T04:43:42.201Z,2.40
2023-05-17T04:46:17.322Z,2.10
2023-05-17T04:48:48.178Z,1.90
2023-05-17T04:51:19.266Z,2.50
2023-05-17T04:53:50.694Z,1.80
2023-05-17T04:56:22.687Z,2.60
2023-05-17T04:58:53.639Z,2.60
2023-05-17T05:01:24.784Z,2.00
2023-05-17T05:03:55.481Z,2.10
2023-05-17T05:06:25.957Z,1.80
2023-05-17T05:08:57.206Z,2.10
2023-05-17T05:11:28.740Z,2.30
2023-05-17T05:13:59.450Z,2.10
2023-05-17T05:16:30.120Z,2.20
2023-05-17T05:19:00.735Z,1.80
2023-05-17T05:21:31.524Z,1.90
2023-05-17T05:24:04.277Z,2.20
2023-05-17T05:26:34.857Z,2.20
2023-05-17T05:29:06.230Z,1.80
2023-05-17T05:31:36.958Z,2.00
2023-05-17T05:34:08.525Z,1.50
2023-05-17T05:36:39.352Z,1.70
2023-05-17T05:39:09.889Z,2.00
2023-05-17T05:41:40.698Z,1.70
2023-05-17T05:44:11.274Z,1.70
2023-05-17T05:46:42.345Z,1.80
2023-05-17T05:49:12.812Z,2.10
2023-05-17T05:51:43.209Z,1.80
2023-05-17T05:54:14.042Z,1.90
2023-05-17T05:56:44.473Z,1.70
2023-05-17T05:59:16.144Z,1.90
2023-05-17T06:01:47.918Z,1.70
2023-05-17T06:04:19.711Z,1.60
2023-05-17T06:06:50.362Z,1.80
2023-05-17T06:09:20.885Z,1.70
2023-05-17T06:12:10.169Z,1.50
2023-05-17T06:14:40.630Z,1.70
2023-05-17T06:17:11.072Z,1.70
2023-05-17T06:19:41.531Z,1.70
2023-05-17T06:22:11.894Z,1.70
2023-05-17T06:24:42.339Z,1.70
2023-05-17T06:27:12.774Z,2.00
2023-05-17T06:29:43.137Z,1.70
2023-05-17T06:32:13.524Z,2.00
2023-05-17T06:34:43.847Z,1.60
2023-05-17T06:37:14.249Z,1.70
2023-05-17T06:39:51.557Z,1.40
2023-05-17T06:42:30.344Z,1.50
2023-05-17T06:45:00.722Z,1.70
2023-05-17T06:47:31.190Z,1.90
2023-05-17T06:50:01.580Z,2.10
2023-05-17T06:52:32.008Z,2.20
2023-05-17T06:55:02.401Z,2.70
2023-05-17T06:57:32.944Z,2.50
2023-05-17T07:00:06.521Z,2.00
2023-05-17T07:02:37.082Z,2.10
2023-05-17T07:05:08.828Z,1.90
2023-05-17T07:07:39.254Z,2.00
2023-05-17T07:10:10.691Z,2.60
2023-05-17T07:12:41.060Z,1.90
2023-05-17T07:15:12.770Z,2.00
2023-05-17T07:17:43.345Z,2.20
2023-05-17T07:20:15.852Z,2.40
2023-05-17T07:22:48.401Z,1.80
2023-05-17T07:25:21.111Z,1.70
2023-05-17T07:27:54.944Z,2.10
2023-05-17T07:30:25.337Z,2.00
2023-05-17T07:32:55.826Z,2.00
2023-05-17T07:35:26.246Z,2.20
2023-05-17T07:37:56.729Z,1.70
2023-05-17T07:40:27.133Z,2.70
2023-05-17T07:42:57.512Z,2.40
2023-05-17T07:45:29.329Z,2.30
2023-05-17T07:48:02.197Z,2.10
2023-05-17T07:50:33.016Z,2.70
2023-05-17T07:53:06.242Z,2.50
2023-05-17T07:55:36.647Z,2.70
2023-05-17T07:58:07.077Z,2.00
2023-05-17T08:00:38.821Z,2.10
2023-05-17T08:03:09.603Z,2.70
2023-05-17T08:05:40.015Z,2.30
2023-05-17T08:08:10.622Z,2.40
2023-05-17T08:10:41.409Z,2.80
2023-05-17T08:13:11.878Z,2.50
2023-05-17T08:15:42.328Z,3.10
2023-05-17T08:18:12.832Z,2.60
2023-05-17T08:20:43.424Z,2.80
2023-05-17T08:23:13.804Z,3.10
2023-05-17T08:25:44.246Z,3.40
2023-05-17T08:28:15.801Z,2.90
2023-05-17T08:30:46.278Z,2.60
2023-05-17T08:33:16.783Z,2.70
2023-05-17T08:35:47.601Z,2.80
2023-05-17T08:38:20.597Z,3.60
2023-05-17T08:40:56.971Z,2.20
2023-05-17T08:43:27.934Z,2.70
2023-05-17T08:45:59.243Z,2.70
2023-05-17T08:48:31.405Z,2.60
2023-05-17T08:51:03.557Z,2.60
2023-05-17T08:53:35.541Z,2.80
2023-05-17T08:56:07.849Z,2.80
2023-05-17T08:58:52.171Z,2.80
2023-05-17T09:01:29.913Z,2.90
2023-05-17T09:04:02.755Z,3.00
2023-05-17T09:06:35.472Z,3.50
2023-05-17T09:09:08.863Z,2.80
2023-05-17T09:11:39.635Z,2.60
2023-05-17T09:14:10.123Z,2.30
2023-05-17T09:16:40.717Z,2.90
2023-05-17T09:19:15.826Z,2.40
2023-05-17T09:21:49.659Z,2.70
2023-05-17T09:24:28.161Z,2.90
2023-05-17T09:27:04.350Z,2.90
2023-05-17T09:29:34.892Z,2.10
2023-05-17T09:32:20.633Z,2.50
2023-05-17T09:34:51.169Z,3.60
2023-05-17T09:37:22.113Z,2.50
2023-05-17T09:39:52.598Z,2.10
2023-05-17T09:42:28.391Z,2.50
2023-05-17T09:44:59.986Z,2.80
2023-05-17T09:47:31.578Z,2.80
2023-05-17T09:50:04.846Z,2.50
2023-05-17T09:52:38.180Z,2.30
2023-05-17T09:55:11.316Z,2.30
2023-05-17T09:57:42.538Z,2.30
2023-05-17T10:00:15.062Z,2.10
2023-05-17T10:02:49.231Z,2.30
2023-05-17T10:05:21.517Z,2.40
2023-05-17T10:07:53.636Z,2.30
2023-05-17T10:10:24.311Z,2.60
2023-05-17T10:12:56.407Z,1.80
2023-05-17T10:15:27.556Z,2.10
2023-05-17T10:17:58.916Z,2.00
2023-05-17T10:20:30.599Z,2.20
2023-05-17T10:23:03.718Z,2.50
2023-05-17T10:25:34.516Z,2.80
2023-05-17T10:28:06.874Z,2.70
2023-05-17T10:30:38.745Z,2.70
2023-05-17T10:33:09.466Z,2.90
2023-05-17T10:35:41.821Z,2.60
2023-05-17T10:38:12.493Z,1.90
2023-05-17T10:40:44.832Z,2.20
2023-05-17T10:43:16.822Z,2.00
2023-05-17T10:45:48.442Z,1.90
2023-05-17T10:48:19.474Z,2.20
2023-05-17T10:51:00.986Z,2.40
2023-05-17T10:53:32.114Z,2.10
2023-05-17T10:56:02.548Z,2.10
2023-05-17T10:58:32.999Z,2.20
2023-05-17T11:01:05.137Z,2.40
2023-05-17T11:03:36.697Z,1.80
2023-05-17T11:06:24.486Z,2.00
2023-05-17T11:09:17.548Z,2.20
2023-05-17T11:12:09.338Z,1.90
2023-05-17T11:14:55.207Z,1.90
2023-05-17T11:17:28.523Z,1.80
2023-05-17T11:20:10.911Z,1.90
2023-05-17T11:22:44.933Z,1.90
2023-05-17T11:25:16.059Z,2.10
2023-05-17T11:27:51.145Z,1.70
2023-05-17T11:30:26.717Z,1.60
2023-05-17T11:33:01.081Z,1.70
2023-05-17T11:35:33.660Z,1.50
2023-05-17T11:38:18.902Z,1.60
2023-05-17T11:40:50.363Z,2.00
2023-05-17T11:43:22.973Z,1.70
2023-05-17T11:45:55.213Z,1.60
2023-05-17T11:48:27.276Z,1.80
2023-05-17T11:51:02.277Z,2.10
2023-05-17T11:53:33.806Z,1.80
2023-05-17T11:56:05.410Z,1.90
2023-05-17T11:58:36.164Z,2.00
2023-05-17T12:01:06.840Z,2.20
2023-05-17T12:03:37.557Z,1.50
2023-05-17T12:06:13.338Z,2.40
2023-05-17T12:08:47.065Z,2.20
2023-05-17T12:11:21.809Z,2.00
2023-05-17T12:13:53.338Z,1.90
2023-05-17T12:16:25.792Z,2.60
2023-05-17T12:18:58.432Z,2.30
2023-05-17T12:21:29.297Z,2.00
2023-05-17T12:23:59.704Z,2.70
2023-05-17T12:26:30.107Z,2.50
2023-05-17T12:29:01.584Z,2.00
2023-05-17T12:31:35.256Z,1.80
2023-05-17T12:34:10.237Z,1.90
2023-05-17T12:36:41.692Z,2.00
2023-05-17T12:39:13.842Z,2.30
2023-05-17T12:41:45.792Z,1.80
2023-05-17T12:44:16.644Z,2.20
2023-05-17T12:46:53.447Z,1.90
2023-05-17T12:49:24.474Z,2.20
2023-05-17T12:51:54.812Z,2.20
2023-05-17T12:54:32.482Z,2.20
2023-05-17T12:57:13.845Z,2.10
2023-05-17T12:59:53.554Z,2.20
2023-05-17T13:02:24.977Z,2.00
2023-05-17T13:04:55.723Z,2.20
2023-05-17T13:07:26.358Z,1.70
2023-05-17T13:09:56.909Z,2.00
2023-05-17T13:12:27.427Z,1.90
2023-05-17T13:14:57.835Z,2.10
2023-05-17T13:17:35.932Z,1.90
2023-05-17T13:20:10.499Z,1.80
2023-05-17T13:22:48.191Z,1.80
2023-05-17T13:25:19.092Z,2.00
2023-05-17T13:27:49.776Z,1.80
2023-05-17T13:30:21.938Z,2.10
2023-05-17T13:32:57.019Z,2.20
2023-05-17T13:35:27.694Z,1.60
2023-05-17T13:37:58.377Z,2.10
2023-05-17T13:40:29.015Z,1.90
2023-05-17T13:42:59.810Z,2.00
2023-05-17T13:45:30.196Z,2.30
2023-05-17T13:48:00.727Z,1.90
2023-05-17T13:50:31.566Z,2.00
2023-05-17T13:53:02.530Z,1.80
2023-05-17T13:55:32.869Z,1.70
2023-05-17T13:58:03.218Z,2.30
2023-05-17T14:00:33.695Z,1.80
2023-05-17T14:03:04.857Z,2.10
2023-05-17T14:05:36.788Z,1.90
2023-05-17T14:08:08.885Z,2.10
2023-05-17T14:10:39.301Z,2.10
2023-05-17T14:13:09.731Z,1.70
2023-05-17T14:15:40.749Z,2.20
2023-05-17T14:18:12.034Z,2.20
2023-05-17T14:20:42.660Z,2.00
2023-05-17T14:23:13.062Z,1.70
2023-05-17T14:25:44.058Z,1.70
2023-05-17T14:28:15.098Z,2.00
2023-05-17T14:30:45.735Z,2.00
2023-05-17T14:33:16.259Z,1.80
2023-05-17T14:35:46.648Z,2.00
2023-05-17T14:38:18.069Z,1.80
2023-05-17T14:40:48.428Z,2.30
2023-05-17T14:43:20.335Z,2.30
2023-05-17T14:45:50.844Z,2.10
2023-05-17T14:48:21.413Z,2.00
2023-05-17T14:50:53.336Z,1.90
2023-05-17T14:53:29.010Z,1.60
2023-05-17T14:55:59.851Z,2.20
2023-05-17T14:58:30.177Z,1.90
2023-05-17T15:01:04.813Z,1.90
2023-05-17T15:03:36.606Z,2.00
2023-05-17T15:06:10.101Z,2.00
2023-05-17T15:08:42.160Z,1.90
2023-05-17T15:11:13.202Z,1.90
2023-05-17T15:13:45.200Z,1.70
2023-05-17T15:16:15.835Z,2.10
2023-05-17T15:18:46.244Z,2.00
2023-05-17T15:21:17.688Z,1.60
2023-05-17T15:23:50.765Z,1.80
2023-05-17T15:26:21.525Z,1.80
2023-05-17T15:28:52.125Z,1.90
2023-05-17T15:31:24.221Z,1.80
2023-05-17T15:33:54.730Z,1.80
2023-05-17T15:36:25.299Z,1.60
2023-05-17T15:38:55.726Z,2.00
2023-05-17T15:41:29.666Z,1.80
2023-05-17T15:44:01.791Z,2.50
2023-05-17T15:46:32.217Z,2.00
2023-05-17T15:49:02.568Z,1.80
2023-05-17T15:51:32.979Z,1.70
2023-05-17T15:54:03.411Z,1.60
2023-05-17T15:56:33.920Z,1.50
2023-05-17T15:59:04.585Z,1.60
2023-05-17T16:01:35.119Z,1.90
2023-05-17T16:04:05.852Z,1.70
2023-05-17T16:06:36.823Z,1.60
2023-05-17T16:09:07.406Z,1.60
2023-05-17T16:11:37.821Z,2.00
2023-05-17T16:14:08.309Z,1.90
2023-05-17T16:16:38.732Z,1.80
2023-05-17T16:19:09.249Z,2.20
2023-05-17T16:21:40.037Z,1.90
2023-05-17T16:24:10.525Z,1.80
2023-05-17T16:26:40.966Z,2.40
2023-05-17T16:29:13.733Z,1.70
2023-05-17T16:32:01.003Z,1.60
2023-05-17T16:34:32.495Z,1.90
2023-05-17T16:37:04.310Z,1.60
2023-05-17T16:39:34.714Z,1.60
2023-05-17T16:42:05.683Z,1.50
2023-05-17T16:44:36.150Z,1.70
2023-05-17T16:47:06.877Z,1.40
2023-05-17T16:49:38.718Z,1.70
2023-05-17T16:52:09.415Z,2.00
2023-05-17T16:54:41.238Z,1.50
2023-05-17T16:57:11.568Z,2.00
2023-05-17T16:59:42.191Z,1.90
2023-05-17T17:02:12.648Z,1.80
2023-05-17T17:04:43.133Z,1.20
2023-05-17T17:07:13.478Z,1.90
2023-05-17T17:09:43.812Z,1.40
2023-05-17T17:12:24.092Z,1.40
2023-05-17T17:14:55.817Z,1.20
2023-05-17T17:17:26.585Z,1.80
2023-05-17T17:19:57.436Z,1.70
2023-05-17T17:22:27.851Z,1.30
2023-05-17T17:24:58.202Z,1.70
2023-05-17T17:27:28.628Z,1.80
2023-05-17T17:29:59.259Z,2.00
2023-05-17T17:32:29.731Z,1.50
2023-05-17T17:35:00.579Z,1.50
2023-05-17T17:37:31.080Z,1.70
2023-05-17T17:40:01.469Z,2.20
2023-05-17T17:42:32.362Z,2.10
2023-05-17T17:45:02.736Z,2.30
2023-05-17T17:47:33.189Z,1.60
2023-05-17T17:50:03.648Z,2.10
2023-05-17T17:52:34.011Z,2.20
2023-05-17T17:55:04.472Z,1.90
2023-05-17T17:57:34.839Z,2.10
2023-05-17T18:00:06.132Z,1.80
2023-05-17T18:02:36.744Z,2.00
2023-05-17T18:05:07.942Z,1.90
2023-05-17T18:07:38.397Z,2.00
2023-05-17T18:10:10.351Z,2.10
2023-05-17T18:12:40.721Z,2.00
2023-05-17T18:15:12.590Z,2.00
2023-05-17T18:17:43.524Z,2.60
2023-05-17T18:20:14.281Z,2.00
2023-05-17T18:22:45.029Z,2.10
2023-05-17T18:25:15.417Z,2.00
2023-05-17T18:27:46.049Z,1.80
2023-05-17T18:30:18.333Z,1.90
2023-05-17T18:32:48.950Z,2.10
2023-05-17T18:35:19.505Z,1.70
2023-05-17T18:37:49.805Z,1.80
2023-05-17T18:40:20.497Z,1.80
2023-05-17T18:42:51.280Z,2.00
2023-05-17T18:45:22.134Z,2.10
2023-05-17T18:47:52.887Z,2.30
2023-05-17T18:50:23.343Z,2.40
2023-05-17T18:52:55.832Z,2.50
2023-05-17T18:55:27.733Z,2.30
2023-05-17T18:57:58.130Z,1.60
2023-05-17T19:00:28.935Z,1.70
2023-05-17T19:02:59.548Z,2.00
2023-05-17T19:05:30.321Z,2.10
2023-05-17T19:08:00.990Z,2.10
2023-05-17T19:10:31.591Z,2.10
2023-05-17T19:13:02.392Z,1.80
2023-05-17T19:15:32.980Z,1.80
2023-05-17T19:18:03.343Z,2.50
2023-05-17T19:20:34.242Z,2.60
2023-05-17T19:23:04.939Z,2.40
2023-05-17T19:25:35.342Z,2.40
2023-05-17T19:28:06.322Z,2.50
2023-05-17T19:30:36.883Z,2.20
2023-05-17T19:33:07.677Z,2.00
2023-05-17T19:35:40.266Z,2.00
2023-05-17T19:38:11.764Z,2.10
2023-05-17T19:40:42.536Z,2.40
2023-05-17T19:43:13.096Z,2.00
2023-05-17T19:45:43.601Z,2.70
2023-05-17T19:48:14.044Z,2.70
2023-05-17T19:50:44.549Z,2.30
2023-05-17T19:53:14.906Z,3.10
2023-05-17T19:55:45.479Z,3.30
2023-05-17T19:58:15.965Z,4.40
2023-05-17T20:00:46.379Z,3.30
2023-05-17T20:03:16.809Z,3.00
2023-05-17T20:05:47.235Z,3.50
2023-05-17T20:08:17.597Z,3.20
2023-05-17T20:10:50.887Z,3.30
2023-05-17T20:13:24.184Z,2.30
2023-05-17T20:15:54.695Z,2.80
2023-05-17T20:18:27.671Z,3.20
2023-05-17T20:20:58.075Z,3.00
2023-05-17T20:23:28.522Z,3.80
2023-05-17T20:25:58.871Z,3.30
2023-05-17T20:28:29.247Z,3.40
2023-05-17T20:31:00.775Z,4.40
2023-05-17T20:33:31.310Z,5.70
2023-05-17T20:36:01.747Z,4.60
2023-05-17T20:38:32.213Z,5.60
2023-05-17T20:41:03.249Z,5.00
2023-05-17T20:43:35.262Z,4.90
2023-05-17T20:46:09.489Z,5.40
2023-05-17T20:48:42.649Z,5.50
2023-05-17T20:51:13.477Z,4.80
2023-05-17T20:53:44.060Z,5.10
2023-05-17T20:56:16.176Z,4.40
2023-05-17T20:58:47.114Z,4.20
2023-05-17T21:01:17.524Z,4.50
2023-05-17T21:03:48.176Z,4.30
2023-05-17T21:06:19.042Z,3.80
2023-05-17T21:08:49.370Z,3.30
2023-05-17T21:11:22.118Z,3.50
2023-05-17T21:13:52.515Z,3.70
2023-05-17T21:16:23.037Z,3.60
2023-05-17T21:18:53.897Z,3.60
2023-05-17T21:21:24.368Z,3.40
2023-05-17T21:23:54.732Z,3.00
2023-05-17T21:26:25.111Z,3.30
2023-05-17T21:28:55.795Z,3.10
2023-05-17T21:31:28.270Z,3.00
2023-05-17T21:33:59.079Z,3.00
2023-05-17T21:36:29.466Z,3.60
2023-05-17T21:38:59.862Z,3.10
2023-05-17T21:41:30.259Z,3.60
2023-05-17T21:44:00.605Z,2.80
2023-05-17T21:46:31.231Z,2.90
2023-05-17T21:49:01.987Z,3.80
2023-05-17T21:51:33.920Z,3.30
2023-05-17T21:54:04.922Z,2.90
2023-05-17T21:56:35.956Z,3.80
2023-05-17T21:59:06.379Z,3.10
2023-05-17T22:01:36.952Z,2.90
2023-05-17T22:04:09.276Z,2.80
2023-05-17T22:06:39.821Z,2.20
2023-05-17T22:09:12.385Z,2.70
2023-05-17T22:11:42.789Z,2.60
2023-05-17T22:14:14.707Z,2.70
2023-05-17T22:16:45.125Z,2.40
2023-05-17T22:19:21.266Z,2.70
2023-05-17T22:21:52.733Z,2.70
2023-05-17T22:24:23.620Z,2.70
2023-05-17T22:26:56.542Z,2.70
2023-05-17T22:29:26.897Z,2.90
2023-05-17T22:31:57.326Z,2.60
2023-05-17T22:34:27.706Z,2.40
2023-05-17T22:36:58.338Z,2.50
2023-05-17T22:39:28.682Z,2.60
2023-05-17T22:41:59.024Z,2.20
2023-05-17T22:44:29.403Z,2.90
2023-05-17T22:47:02.413Z,2.60
2023-05-17T22:49:34.270Z,2.20
2023-05-17T22:52:06.624Z,2.10
2023-05-17T22:54:38.406Z,2.10
2023-05-17T22:57:09.623Z,2.30
2023-05-17T22:59:39.979Z,2.60
2023-05-17T23:02:10.311Z,2.60
2023-05-17T23:04:40.700Z,2.40
2023-05-17T23:07:11.032Z,2.80
2023-05-17T23:09:41.506Z,2.50
2023-05-17T23:12:14.285Z,2.50
2023-05-17T23:14:44.863Z,2.50
2023-05-17T23:17:15.825Z,2.70
2023-05-17T23:19:46.273Z,2.80
2023-05-17T23:22:16.830Z,2.30
2023-05-17T23:24:47.116Z,2.50
2023-05-17T23:27:18.569Z,2.70
2023-05-17T23:29:48.905Z,2.60
2023-05-17T23:32:21.427Z,2.70
2023-05-17T23:34:54.209Z,1.90
2023-05-17T23:37:24.545Z,2.20
2023-05-17T23:39:54.992Z,2.60
2023-05-17T23:42:26.424Z,2.40
2023-05-17T23:44:56.733Z,2.50
2023-05-17T23:47:28.134Z,2.60
2023-05-17T23:49:58.736Z,2.70
2023-05-17T23:52:32.609Z,2.20
2023-05-17T23:55:03.345Z,2.30
2023-05-17T23:57:34.487Z,2.80
